createdAt,value
2018-08-31T00:02:20.931Z,19.75
2018-08-31T00:05:06.415Z,19.74
2018-08-31T00:07:53.782Z,19.77
2018-08-31T00:12:37.990Z,19.75
2018-08-31T00:15:07.056Z,19.72
2018-08-31T00:17:36.870Z,19.73
2018-08-31T00:20:05.715Z,19.65
2018-08-31T00:22:34.433Z,19.58
2018-08-31T00:26:23.618Z,19.50
2018-08-31T00:29:48.238Z,19.41
2018-08-31T00:34:05.496Z,19.39
2018-08-31T00:39:53.483Z,19.43
2018-08-31T00:42:49.210Z,19.69
2018-08-31T00:45:33.696Z,19.72
2018-08-31T00:48:02.868Z,19.71
2018-08-31T00:50:31.975Z,19.66
2018-08-31T00:53:01.070Z,19.62
2018-08-31T00:55:29.847Z,19.58
2018-08-31T00:57:58.506Z,19.54
2018-08-31T01:00:27.209Z,19.53
2018-08-31T01:02:55.927Z,19.55
2018-08-31T01:05:24.665Z,19.59
2018-08-31T01:07:53.547Z,19.62
2018-08-31T01:10:23.398Z,19.63
2018-08-31T01:12:53.266Z,19.66
2018-08-31T01:15:21.853Z,19.69
2018-08-31T01:17:50.473Z,19.68
2018-08-31T01:20:19.236Z,19.65
2018-08-31T01:22:47.958Z,19.67
2018-08-31T01:25:16.615Z,19.66
2018-08-31T01:27:45.288Z,19.69
2018-08-31T01:30:13.884Z,20.03
2018-08-31T01:32:42.533Z,19.98
2018-08-31T01:35:11.205Z,19.99
2018-08-31T01:37:39.810Z,19.99
2018-08-31T01:40:08.541Z,20.07
2018-08-31T01:42:37.244Z,20.17
2018-08-31T01:45:06.086Z,20.25
2018-08-31T01:47:34.805Z,20.34
2018-08-31T01:50:03.578Z,20.41
2018-08-31T01:52:32.421Z,20.46
2018-08-31T01:55:01.161Z,20.53
2018-08-31T01:57:29.928Z,20.54
2018-08-31T01:59:58.713Z,20.53
2018-08-31T02:02:27.440Z,20.56
2018-08-31T02:04:56.228Z,20.58
2018-08-31T02:07:24.958Z,20.63
2018-08-31T02:09:53.758Z,20.70
2018-08-31T02:12:22.465Z,20.78
2018-08-31T02:14:51.408Z,20.88
2018-08-31T02:17:20.138Z,21.04
2018-08-31T02:19:48.938Z,21.17
2018-08-31T02:22:17.608Z,21.31
2018-08-31T02:24:46.238Z,21.24
2018-08-31T02:27:14.858Z,21.23
2018-08-31T02:29:43.528Z,21.23
2018-08-31T02:32:12.197Z,21.29
2018-08-31T02:34:40.796Z,21.34
2018-08-31T02:37:09.477Z,21.31
2018-08-31T02:39:38.171Z,21.29
2018-08-31T02:42:06.931Z,20.61
2018-08-31T02:44:35.659Z,21.19
2018-08-31T02:47:04.461Z,21.17
2018-08-31T02:49:33.206Z,21.14
2018-08-31T02:52:01.921Z,21.08
2018-08-31T02:54:30.677Z,21.02
2018-08-31T02:56:59.406Z,20.98
2018-08-31T02:59:28.069Z,20.85
2018-08-31T03:01:56.661Z,20.86
2018-08-31T03:04:25.384Z,20.89
2018-08-31T03:06:54.013Z,20.98
2018-08-31T03:09:22.658Z,20.98
2018-08-31T03:11:51.321Z,20.97
2018-08-31T03:14:19.933Z,21.04
2018-08-31T03:16:48.522Z,21.09
2018-08-31T03:19:17.153Z,21.09
2018-08-31T03:21:45.857Z,21.10
2018-08-31T03:24:14.614Z,21.13
2018-08-31T03:26:43.311Z,21.11
2018-08-31T03:29:12.071Z,21.12
2018-08-31T03:31:40.783Z,21.11
2018-08-31T03:34:09.543Z,21.11
2018-08-31T03:36:38.279Z,21.15
2018-08-31T03:39:09.336Z,21.13
2018-08-31T03:41:38.433Z,21.21
2018-08-31T03:44:07.133Z,21.13
2018-08-31T03:46:35.822Z,21.13
2018-08-31T03:49:04.573Z,21.13
2018-08-31T03:51:33.320Z,21.15
2018-08-31T03:54:02.155Z,21.23
2018-08-31T03:56:30.946Z,21.12
2018-08-31T03:58:59.725Z,21.11
2018-08-31T04:01:28.358Z,21.11
2018-08-31T04:03:56.985Z,21.13
2018-08-31T04:06:25.790Z,21.17
2018-08-31T04:08:54.380Z,21.13
2018-08-31T04:11:23.048Z,21.20
2018-08-31T04:13:51.801Z,21.19
2018-08-31T04:16:20.496Z,19.67
2018-08-31T04:18:49.222Z,21.22
2018-08-31T04:21:17.949Z,21.24
2018-08-31T04:23:46.635Z,21.21
2018-08-31T04:26:15.250Z,21.23
2018-08-31T04:28:43.880Z,21.21
2018-08-31T04:31:12.501Z,21.18
2018-08-31T04:33:41.178Z,21.18
2018-08-31T04:36:09.829Z,21.22
2018-08-31T04:38:38.529Z,21.30
2018-08-31T04:41:07.203Z,21.31
2018-08-31T04:43:35.969Z,21.36
2018-08-31T04:46:04.710Z,21.37
2018-08-31T04:48:33.478Z,21.42
2018-08-31T04:51:02.218Z,21.39
2018-08-31T04:53:31.800Z,21.38
2018-08-31T04:56:00.579Z,21.37
2018-08-31T04:58:29.196Z,21.31
2018-08-31T05:00:57.838Z,21.31
2018-08-31T05:03:26.569Z,21.30
2018-08-31T05:05:55.201Z,21.28
2018-08-31T05:08:23.831Z,21.25
2018-08-31T05:10:52.553Z,21.25
2018-08-31T05:13:21.348Z,21.32
2018-08-31T05:15:50.107Z,21.31
2018-08-31T05:18:18.896Z,21.27
2018-08-31T05:20:47.618Z,21.32
2018-08-31T05:23:16.378Z,21.42
2018-08-31T05:25:45.136Z,21.37
2018-08-31T05:28:13.962Z,21.40
2018-08-31T05:30:42.714Z,21.40
2018-08-31T05:33:12.126Z,21.35
2018-08-31T05:35:40.816Z,21.37
2018-08-31T05:38:09.416Z,21.36
2018-08-31T05:40:38.112Z,21.38
2018-08-31T05:43:06.828Z,21.44
2018-08-31T05:45:35.905Z,21.51
2018-08-31T05:48:04.652Z,21.56
2018-08-31T05:50:33.486Z,21.58
2018-08-31T05:53:02.250Z,21.70
2018-08-31T05:55:30.923Z,21.75
2018-08-31T05:57:59.576Z,21.84
2018-08-31T06:00:28.458Z,21.71
2018-08-31T06:02:57.109Z,21.77
2018-08-31T06:05:26.200Z,21.80
2018-08-31T06:07:55.014Z,21.66
2018-08-31T06:10:23.761Z,21.84
2018-08-31T06:12:52.521Z,21.94
2018-08-31T06:15:21.294Z,22.16
2018-08-31T06:17:50.036Z,22.40
2018-08-31T06:20:18.779Z,22.58
2018-08-31T06:22:47.553Z,22.75
2018-08-31T06:25:16.364Z,22.76
2018-08-31T06:27:45.251Z,22.76
2018-08-31T06:30:14.659Z,22.84
2018-08-31T06:32:43.340Z,22.81
2018-08-31T06:35:12.083Z,22.85
2018-08-31T06:37:40.936Z,22.98
2018-08-31T06:40:09.675Z,23.24
2018-08-31T06:42:38.467Z,23.50
2018-08-31T06:45:07.306Z,23.43
2018-08-31T06:47:36.042Z,23.51
2018-08-31T06:50:05.161Z,23.77
2018-08-31T06:52:33.979Z,23.91
2018-08-31T06:55:02.693Z,23.74
2018-08-31T06:57:31.457Z,23.05
2018-08-31T07:00:00.251Z,23.59
2018-08-31T07:02:29.025Z,23.46
2018-08-31T07:04:57.790Z,23.20
2018-08-31T07:07:26.475Z,23.39
2018-08-31T07:09:55.169Z,23.25
2018-08-31T07:12:23.939Z,23.22
2018-08-31T07:14:52.543Z,23.32
2018-08-31T07:17:21.222Z,23.41
2018-08-31T07:19:50.139Z,23.51
2018-08-31T07:22:19.011Z,23.59
2018-08-31T07:24:47.865Z,23.78
2018-08-31T07:27:16.525Z,23.84
2018-08-31T07:29:45.169Z,24.01
2018-08-31T07:32:14.002Z,24.12
2018-08-31T07:34:42.608Z,24.01
2018-08-31T07:37:11.316Z,24.25
2018-08-31T07:39:40.068Z,24.34
2018-08-31T07:42:08.759Z,24.44
2018-08-31T07:44:37.389Z,24.65
2018-08-31T07:47:06.098Z,24.98
2018-08-31T07:49:34.706Z,25.20
2018-08-31T07:52:03.331Z,25.31
2018-08-31T07:54:32.011Z,25.19
2018-08-31T07:57:00.623Z,25.35
2018-08-31T07:59:29.276Z,25.70
2018-08-31T08:01:58.004Z,25.69
2018-08-31T08:04:26.854Z,25.95
2018-08-31T08:06:55.539Z,26.09
2018-08-31T08:09:24.259Z,26.06
2018-08-31T08:11:53.005Z,25.94
2018-08-31T08:14:21.856Z,25.95
2018-08-31T08:16:50.664Z,26.27
2018-08-31T08:19:19.528Z,26.42
2018-08-31T08:21:48.373Z,26.52
2018-08-31T08:24:17.134Z,26.62
2018-08-31T08:26:45.784Z,26.81
2018-08-31T08:29:14.441Z,27.30
2018-08-31T08:31:43.056Z,27.48
2018-08-31T08:34:11.699Z,27.32
2018-08-31T08:36:40.495Z,27.59
2018-08-31T08:39:09.241Z,27.66
2018-08-31T08:41:38.009Z,27.33
2018-08-31T08:44:07.330Z,27.08
2018-08-31T08:46:35.962Z,27.43
2018-08-31T08:49:04.796Z,27.86
2018-08-31T08:51:34.335Z,27.37
2018-08-31T08:54:03.086Z,27.07
2018-08-31T08:56:32.876Z,26.96
2018-08-31T08:59:01.690Z,26.79
2018-08-31T09:01:30.419Z,27.33
2018-08-31T09:03:59.175Z,27.38
2018-08-31T09:06:27.873Z,27.55
2018-08-31T09:08:56.660Z,26.97
2018-08-31T09:11:25.373Z,26.88
2018-08-31T09:13:54.806Z,27.45
2018-08-31T09:16:23.626Z,27.33
2018-08-31T09:18:52.341Z,27.30
2018-08-31T09:21:21.104Z,27.09
2018-08-31T09:23:49.814Z,27.01
2018-08-31T09:26:18.679Z,26.99
2018-08-31T09:28:47.484Z,26.85
2018-08-31T09:31:17.500Z,27.32
2018-08-31T09:33:46.273Z,27.49
2018-08-31T09:36:15.076Z,27.73
2018-08-31T09:38:43.922Z,27.85
2018-08-31T09:41:12.791Z,28.08
2018-08-31T09:43:42.070Z,27.94
2018-08-31T09:46:10.751Z,27.95
2018-08-31T09:48:39.386Z,28.29
2018-08-31T09:51:07.998Z,28.66
2018-08-31T09:53:36.705Z,29.00
2018-08-31T09:56:05.580Z,29.26
2018-08-31T09:58:34.668Z,28.93
2018-08-31T10:01:09.100Z,28.30
2018-08-31T10:03:41.944Z,28.68
2018-08-31T10:06:10.755Z,29.00
2018-08-31T10:08:39.673Z,29.34
2018-08-31T10:11:08.426Z,29.40
2018-08-31T10:13:37.224Z,29.87
2018-08-31T10:16:06.198Z,29.82
2018-08-31T10:18:35.029Z,29.64
2018-08-31T10:21:03.763Z,29.53
2018-08-31T10:23:32.513Z,29.04
2018-08-31T10:26:01.271Z,29.14
2018-08-31T10:28:30.108Z,29.09
2018-08-31T10:30:58.953Z,28.92
2018-08-31T10:33:27.801Z,28.35
2018-08-31T10:35:56.531Z,28.24
2018-08-31T10:38:25.316Z,28.61
2018-08-31T10:40:54.131Z,28.44
2018-08-31T10:43:23.569Z,28.38
2018-08-31T10:45:52.428Z,28.68
2018-08-31T10:48:22.434Z,28.84
2018-08-31T10:50:51.298Z,29.50
2018-08-31T10:53:20.296Z,29.53
2018-08-31T10:55:49.053Z,29.56
2018-08-31T10:58:17.844Z,28.83
2018-08-31T11:00:46.623Z,28.53
2018-08-31T11:03:15.496Z,29.36
2018-08-31T11:05:44.323Z,30.22
2018-08-31T11:08:13.196Z,30.42
2018-08-31T11:10:41.983Z,31.19
2018-08-31T11:13:10.842Z,31.59
2018-08-31T11:15:39.551Z,31.99
2018-08-31T11:18:08.323Z,31.58
2018-08-31T11:20:37.106Z,31.54
2018-08-31T11:23:06.498Z,32.09
2018-08-31T11:25:35.403Z,31.61
2018-08-31T11:28:04.178Z,31.93
2018-08-31T11:30:33.851Z,31.74
2018-08-31T11:33:02.663Z,31.69
2018-08-31T11:35:31.402Z,31.81
2018-08-31T11:38:01.037Z,32.37
2018-08-31T11:40:29.773Z,32.92
2018-08-31T11:42:58.496Z,33.12
2018-08-31T11:45:27.268Z,32.93
2018-08-31T11:47:56.924Z,32.64
2018-08-31T11:50:26.183Z,32.17
2018-08-31T11:52:55.096Z,31.50
2018-08-31T11:55:23.964Z,31.95
2018-08-31T11:57:53.366Z,32.45
2018-08-31T12:00:22.141Z,32.29
2018-08-31T12:02:50.783Z,31.60
2018-08-31T12:05:20.416Z,30.94
2018-08-31T12:07:49.144Z,30.28
2018-08-31T12:10:18.199Z,30.35
2018-08-31T12:12:47.036Z,30.02
2018-08-31T12:15:16.239Z,29.88
2018-08-31T12:17:45.059Z,29.72
2018-08-31T12:20:13.949Z,29.87
2018-08-31T12:22:42.856Z,30.21
2018-08-31T12:25:11.586Z,30.62
2018-08-31T12:27:43.874Z,30.37
2018-08-31T12:30:13.170Z,30.26
2018-08-31T12:32:42.174Z,30.09
2018-08-31T12:35:11.216Z,30.36
2018-08-31T12:37:40.197Z,30.32
2018-08-31T12:40:10.052Z,30.58
2018-08-31T12:42:38.891Z,30.38
2018-08-31T12:45:07.841Z,30.01
2018-08-31T12:47:36.671Z,30.43
2018-08-31T12:50:05.383Z,30.17
2018-08-31T12:52:34.096Z,30.39
2018-08-31T12:55:02.991Z,31.14
2018-08-31T12:57:31.656Z,31.08
2018-08-31T13:00:01.156Z,30.50
2018-08-31T13:02:31.283Z,30.05
2018-08-31T13:05:00.811Z,29.57
2018-08-31T13:07:29.567Z,29.97
2018-08-31T13:09:58.316Z,30.21
2018-08-31T13:12:27.432Z,30.66
2018-08-31T13:14:56.292Z,30.54
2018-08-31T13:17:25.219Z,30.21
2018-08-31T13:19:54.040Z,29.90
2018-08-31T13:22:22.687Z,29.39
2018-08-31T13:24:51.556Z,29.05
2018-08-31T13:27:20.862Z,29.22
2018-08-31T13:29:49.607Z,29.49
2018-08-31T13:32:18.379Z,29.31
2018-08-31T13:34:47.099Z,28.99
2018-08-31T13:37:15.919Z,29.18
2018-08-31T13:39:44.669Z,29.21
2018-08-31T13:42:13.509Z,29.01
2018-08-31T13:44:42.290Z,29.46
2018-08-31T13:47:11.124Z,29.97
2018-08-31T13:49:39.976Z,29.65
2018-08-31T13:52:08.761Z,29.57
2018-08-31T13:54:38.039Z,29.97
2018-08-31T13:57:07.017Z,30.43
2018-08-31T13:59:35.740Z,30.40
2018-08-31T14:02:04.805Z,30.36
2018-08-31T14:04:33.723Z,30.15
2018-08-31T14:07:02.405Z,30.77
2018-08-31T14:09:31.152Z,30.20
2018-08-31T14:12:01.564Z,30.07
2018-08-31T14:14:30.234Z,29.73
2018-08-31T14:16:58.931Z,29.13
2018-08-31T14:19:27.591Z,28.76
2018-08-31T14:21:56.318Z,28.72
2018-08-31T14:24:25.054Z,29.08
2018-08-31T14:26:53.785Z,28.80
2018-08-31T14:29:23.273Z,28.40
2018-08-31T14:31:52.367Z,27.98
2018-08-31T14:34:21.131Z,27.73
2018-08-31T14:36:50.061Z,27.66
2018-08-31T14:39:18.866Z,27.75
2018-08-31T14:41:47.501Z,27.64
2018-08-31T14:44:16.199Z,27.89
2018-08-31T14:46:44.913Z,28.00
2018-08-31T14:49:14.186Z,27.88
2018-08-31T14:51:43.049Z,27.98
2018-08-31T14:54:11.817Z,27.80
2018-08-31T14:56:40.637Z,27.56
2018-08-31T14:59:09.384Z,27.50
2018-08-31T15:01:38.225Z,27.45
2018-08-31T15:04:09.783Z,27.60
2018-08-31T15:06:38.426Z,28.10
2018-08-31T15:09:09.058Z,28.73
2018-08-31T15:11:37.834Z,28.40
2018-08-31T15:14:06.591Z,27.80
2018-08-31T15:16:35.370Z,27.33
2018-08-31T15:19:04.311Z,27.50
2018-08-31T15:21:33.116Z,27.46
2018-08-31T15:24:01.854Z,27.58
2018-08-31T15:26:30.479Z,27.25
2018-08-31T15:28:59.278Z,27.30
2018-08-31T15:31:28.130Z,27.30
2018-08-31T15:33:56.765Z,27.12
2018-08-31T15:36:25.406Z,27.13
2018-08-31T15:38:54.166Z,27.04
2018-08-31T15:41:22.863Z,26.90
2018-08-31T15:43:51.708Z,27.02
2018-08-31T15:46:21.133Z,26.90
2018-08-31T15:48:50.036Z,26.74
2018-08-31T15:51:18.848Z,26.90
2018-08-31T15:53:47.596Z,27.10
2018-08-31T15:56:17.024Z,26.95
2018-08-31T15:58:45.871Z,26.84
2018-08-31T16:01:14.658Z,26.77
2018-08-31T16:03:43.386Z,26.74
2018-08-31T16:06:12.157Z,26.57
2018-08-31T16:08:40.879Z,26.52
2018-08-31T16:11:09.549Z,26.34
2018-08-31T16:13:38.361Z,26.36
2018-08-31T16:16:07.366Z,26.29
2018-08-31T16:18:36.300Z,26.28
2018-08-31T16:21:05.112Z,26.18
2018-08-31T16:23:33.963Z,26.18
2018-08-31T16:26:02.756Z,26.17
2018-08-31T16:28:31.506Z,26.21
2018-08-31T16:31:00.352Z,26.30
2018-08-31T16:33:29.088Z,26.25
2018-08-31T16:35:57.771Z,26.13
2018-08-31T16:38:26.441Z,26.21
2018-08-31T16:40:55.126Z,26.08
2018-08-31T16:43:23.911Z,25.98
2018-08-31T16:45:52.821Z,25.87
2018-08-31T16:48:21.567Z,25.96
2018-08-31T16:50:50.891Z,25.88
2018-08-31T16:53:19.641Z,25.81
2018-08-31T16:55:48.411Z,25.77
2018-08-31T16:58:17.269Z,25.73
2018-08-31T17:00:46.486Z,25.64
2018-08-31T17:03:15.287Z,25.69
2018-08-31T17:05:44.076Z,25.67
2018-08-31T17:08:12.754Z,25.67
2018-08-31T17:10:41.419Z,25.65
2018-08-31T17:13:10.168Z,25.59
2018-08-31T17:15:39.091Z,25.59
2018-08-31T17:18:07.863Z,25.69
2018-08-31T17:20:36.639Z,25.59
2018-08-31T17:23:05.463Z,25.53
2018-08-31T17:25:34.286Z,25.50
2018-08-31T17:28:08.732Z,25.31
2018-08-31T17:30:37.614Z,25.17
2018-08-31T17:33:12.133Z,25.11
2018-08-31T17:35:46.361Z,25.08
2018-08-31T17:38:15.077Z,24.93
2018-08-31T17:40:43.758Z,24.91
2018-08-31T17:43:12.554Z,24.82
2018-08-31T17:45:41.358Z,24.77
2018-08-31T17:48:10.111Z,24.69
2018-08-31T17:50:38.856Z,24.62
2018-08-31T17:53:07.571Z,24.53
2018-08-31T17:55:36.347Z,24.48
2018-08-31T17:58:05.961Z,24.46
2018-08-31T18:00:34.746Z,24.40
2018-08-31T18:03:03.548Z,24.36
2018-08-31T18:05:32.255Z,24.27
2018-08-31T18:08:00.998Z,24.18
2018-08-31T18:10:29.766Z,24.12
2018-08-31T18:12:58.481Z,24.08
2018-08-31T18:15:27.879Z,24.03
2018-08-31T18:17:56.788Z,24.02
2018-08-31T18:20:25.698Z,24.03
2018-08-31T18:22:54.563Z,24.01
2018-08-31T18:25:24.123Z,23.96
2018-08-31T18:27:52.943Z,23.92
2018-08-31T18:30:21.743Z,23.97
2018-08-31T18:32:51.263Z,23.90
2018-08-31T18:35:20.516Z,23.91
2018-08-31T18:37:49.331Z,23.89
2018-08-31T18:40:18.127Z,23.87
2018-08-31T18:42:47.095Z,23.81
2018-08-31T18:45:16.753Z,23.90
2018-08-31T18:47:45.446Z,23.77
2018-08-31T18:50:14.161Z,23.74
2018-08-31T18:52:42.972Z,23.72
2018-08-31T18:55:11.732Z,23.66
2018-08-31T18:57:40.402Z,23.61
2018-08-31T19:00:09.176Z,23.56
2018-08-31T19:02:37.863Z,23.53
2018-08-31T19:05:06.607Z,23.51
2018-08-31T19:07:35.385Z,23.62
2018-08-31T19:10:04.229Z,23.68
2018-08-31T19:12:33.729Z,23.78
2018-08-31T19:15:02.484Z,23.75
2018-08-31T19:17:31.724Z,23.67
2018-08-31T19:20:01.515Z,23.59
2018-08-31T19:22:30.461Z,23.51
2018-08-31T19:24:59.201Z,23.41
2018-08-31T19:27:27.896Z,23.39
2018-08-31T19:29:56.619Z,23.35
2018-08-31T19:32:25.478Z,23.40
2018-08-31T19:34:55.632Z,23.32
2018-08-31T19:37:24.444Z,23.28
2018-08-31T19:39:53.423Z,23.25
2018-08-31T19:42:22.086Z,23.21
2018-08-31T19:44:51.998Z,23.18
2018-08-31T19:47:20.723Z,23.13
2018-08-31T19:49:49.960Z,23.06
2018-08-31T19:52:18.632Z,22.96
2018-08-31T19:54:48.801Z,22.96
2018-08-31T19:57:17.561Z,22.91
2018-08-31T19:59:46.244Z,22.93
2018-08-31T20:02:15.529Z,22.94
2018-08-31T20:04:44.301Z,23.00
2018-08-31T20:07:13.529Z,23.05
2018-08-31T20:09:42.346Z,23.05
2018-08-31T20:12:11.720Z,23.10
2018-08-31T20:14:41.134Z,23.09
2018-08-31T20:17:10.251Z,23.08
2018-08-31T20:19:39.097Z,22.99
2018-08-31T20:22:11.064Z,23.04
2018-08-31T20:24:40.050Z,23.10
2018-08-31T20:27:09.347Z,23.06
2018-08-31T20:29:38.152Z,23.07
2018-08-31T20:32:08.411Z,23.11
2018-08-31T20:34:37.292Z,23.01
2018-08-31T20:37:06.252Z,22.95
2018-08-31T20:39:35.084Z,22.92
2018-08-31T20:42:03.980Z,22.83
2018-08-31T20:44:32.966Z,22.80
2018-08-31T20:47:02.346Z,22.83
2018-08-31T20:49:31.514Z,22.81
2018-08-31T20:52:00.407Z,22.86
2018-08-31T20:54:29.068Z,22.83
2018-08-31T20:56:57.871Z,22.87
2018-08-31T20:59:27.684Z,22.83
2018-08-31T21:01:58.534Z,22.81
2018-08-31T21:04:28.039Z,22.86
2018-08-31T21:06:56.892Z,22.84
2018-08-31T21:09:25.572Z,22.80
2018-08-31T21:11:54.264Z,22.81
2018-08-31T21:14:23.183Z,22.73
2018-08-31T21:16:51.906Z,22.63
2018-08-31T21:19:20.649Z,22.63
2018-08-31T21:21:49.487Z,22.67
2018-08-31T21:24:18.847Z,22.68
2018-08-31T21:26:48.020Z,22.73
2018-08-31T21:29:16.679Z,22.77
2018-08-31T21:31:45.404Z,22.81
2018-08-31T21:34:14.191Z,22.93
2018-08-31T21:36:42.888Z,22.64
2018-08-31T21:39:11.679Z,22.44
2018-08-31T21:41:40.450Z,22.23
2018-08-31T21:44:09.306Z,22.21
2018-08-31T21:46:38.079Z,22.11
2018-08-31T21:49:06.780Z,22.09
2018-08-31T21:51:35.811Z,22.04
2018-08-31T21:54:04.503Z,21.98
2018-08-31T21:56:33.271Z,22.06
2018-08-31T21:59:02.033Z,21.99
2018-08-31T22:01:36.266Z,22.02
2018-08-31T22:04:05.312Z,22.07
2018-08-31T22:06:35.273Z,22.03
2018-08-31T22:09:05.856Z,22.00
2018-08-31T22:11:34.689Z,21.92
2018-08-31T22:14:03.487Z,21.87
2018-08-31T22:16:32.366Z,21.86
2018-08-31T22:19:01.163Z,21.83
2018-08-31T22:21:29.966Z,21.80
2018-08-31T22:23:58.728Z,21.84
2018-08-31T22:26:27.460Z,21.77
2018-08-31T22:28:56.279Z,21.73
2018-08-31T22:31:24.956Z,21.73
2018-08-31T22:33:53.661Z,21.74
2018-08-31T22:36:22.295Z,21.73
2018-08-31T22:38:51.040Z,21.75
2018-08-31T22:41:19.745Z,21.73
2018-08-31T22:43:49.790Z,21.72
2018-08-31T22:46:20.523Z,21.64
2018-08-31T22:48:50.158Z,21.69
2018-08-31T22:51:19.675Z,21.70
2018-08-31T22:53:48.723Z,21.70
2018-08-31T22:56:17.516Z,21.75
2018-08-31T22:58:46.184Z,21.72
2018-08-31T23:01:15.103Z,21.75
2018-08-31T23:03:44.068Z,21.72
2018-08-31T23:06:12.935Z,21.73
2018-08-31T23:08:41.577Z,21.67
2018-08-31T23:11:11.407Z,21.71
2018-08-31T23:13:42.348Z,21.70
2018-08-31T23:16:11.106Z,21.64
2018-08-31T23:18:39.991Z,21.61
2018-08-31T23:21:09.303Z,21.57
2018-08-31T23:23:43.398Z,21.62
2018-08-31T23:26:12.044Z,21.68
2018-08-31T23:28:40.849Z,21.61
2018-08-31T23:31:09.579Z,21.62
2018-08-31T23:33:38.238Z,21.59
2018-08-31T23:36:06.898Z,21.58
2018-08-31T23:38:36.019Z,21.59
2018-08-31T23:41:04.836Z,21.65
2018-08-31T23:43:33.568Z,21.61
2018-08-31T23:46:03.207Z,21.60
2018-08-31T23:48:31.934Z,21.58
2018-08-31T23:51:00.696Z,21.60
2018-08-31T23:53:29.456Z,21.64
2018-08-31T23:55:59.041Z,21.65
2018-08-31T23:58:27.908Z,21.69
